Time;durP1;ratioP1;P1;durP2;ratioP2;P2;SDS_P1;SDS_P2;PMS_P1;PMS_P2;Temp;Humidity;BMP_temperature;BMP_pressure;BME280_temperature;BME280_humidity;BME280_pressure;Samples;Min_cycle;Max_cycle;Signal;HPM_P1;HPM_P2
2021/10/26 00:02:17;;;;;;;14.60;8.80;;;;;;;7.64;69.68;101249.84;5064703;28;20092;-72
2021/10/26 00:04:43;;;;;;;17.60;9.77;;;;;;;7.57;69.76;101244.16;5064399;28;20083;-72
2021/10/26 00:07:08;;;;;;;15.85;9.70;;;;;;;7.61;70.62;101247.41;5064735;28;20088;-72
2021/10/26 00:09:34;;;;;;;16.85;9.52;;;;;;;7.44;70.51;101206.41;5064650;28;20056;-72
2021/10/26 00:12:00;;;;;;;17.95;9.80;;;;;;;7.72;70.48;101242.22;5064512;28;20033;-71
2021/10/26 00:14:26;;;;;;;15.93;9.02;;;;;;;7.66;68.68;101243.50;5064366;28;20104;-71
2021/10/26 00:16:53;;;;;;;15.43;8.88;;;;;;;7.52;68.91;101224.31;5046653;28;20020;-72
2021/10/26 00:19:19;;;;;;;16.55;10.02;;;;;;;7.66;70.10;101232.13;5063708;28;20048;-72
2021/10/26 00:21:44;;;;;;;15.75;9.18;;;;;;;7.59;70.42;101228.22;5063518;28;20257;-72
2021/10/26 00:24:10;;;;;;;18.50;9.98;;;;;;;7.61;71.59;101234.22;5064219;28;20040;-72
2021/10/26 00:26:36;;;;;;;17.25;9.40;;;;;;;7.67;71.22;101223.25;5046465;28;20131;-72
2021/10/26 00:29:02;;;;;;;16.98;9.20;;;;;;;7.65;71.23;101217.25;5063812;28;20291;-72
2021/10/26 00:31:27;;;;;;;14.55;9.45;;;;;;;7.67;70.70;101218.81;5064022;28;20330;-72
2021/10/26 00:33:53;;;;;;;15.23;8.32;;;;;;;7.71;71.20;101218.59;5064115;28;20047;-72
2021/10/26 00:36:19;;;;;;;17.98;9.07;;;;;;;7.68;71.24;101217.03;5063948;28;20039;-71
2021/10/26 00:38:44;;;;;;;19.67;10.38;;;;;;;7.57;71.93;101217.78;5064080;28;20060;-72
2021/10/26 00:41:10;;;;;;;15.05;9.40;;;;;;;7.80;71.43;101215.31;5063892;28;20037;-72
2021/10/26 00:43:35;;;;;;;16.90;9.88;;;;;;;7.85;70.86;101218.47;5064021;28;20043;-72
2021/10/26 00:46:01;;;;;;;16.35;9.20;;;;;;;7.83;71.37;101215.94;5063938;28;20037;-72
2021/10/26 00:48:26;;;;;;;20.52;10.10;;;;;;;7.85;71.66;101219.31;5046235;28;20044;-71
2021/10/26 00:50:53;;;;;;;17.10;9.27;;;;;;;7.80;71.34;101218.81;5063619;28;20197;-71
2021/10/26 00:53:19;;;;;;;15.77;8.80;;;;;;;7.86;71.24;101207.81;5063791;28;20052;-71
2021/10/26 00:55:49;;;;;;;22.83;9.43;;;;;;;7.85;71.61;101215.84;5063516;28;20037;-71
2021/10/26 00:58:15;;;;;;;18.65;9.15;;;;;;;7.93;71.40;101206.44;5063620;28;20311;-71
2021/10/26 01:00:42;;;;;;;16.08;8.77;;;;;;;7.89;71.20;101202.31;5063508;28;20234;-71
2021/10/26 01:03:08;;;;;;;17.88;9.50;;;;;;;7.87;72.04;101201.59;5063612;28;20052;-72
2021/10/26 01:05:33;;;;;;;16.05;9.02;;;;;;;7.77;71.80;101181.25;5063305;28;20361;-72
2021/10/26 01:07:59;;;;;;;15.38;9.07;;;;;;;7.89;72.14;101196.22;5063564;28;20364;-72
2021/10/26 01:10:25;;;;;;;16.75;10.77;;;;;;;7.94;72.13;101189.66;5063537;28;20044;-72
2021/10/26 01:12:51;;;;;;;22.23;10.02;;;;;;;8.04;72.14;101191.63;5063351;28;20039;-72
2021/10/26 01:15:16;;;;;;;15.88;9.50;;;;;;;8.09;71.47;101190.34;5063446;28;20037;-72
2021/10/26 01:17:42;;;;;;;19.25;9.98;;;;;;;8.18;70.71;101180.91;5063356;28;20029;-72
2021/10/26 01:20:08;;;;;;;20.73;11.20;;;;;;;8.08;71.18;101190.47;5063083;28;20414;-71
2021/10/26 01:22:39;;;;;;;20.88;11.55;;;;;;;7.97;72.40;101189.44;5063131;28;20039;-71
2021/10/26 01:25:10;;;;;;;17.80;10.77;;;;;;;8.19;71.44;101177.31;5063224;28;20329;-72
2021/10/26 01:27:40;;;;;;;23.35;11.52;;;;;;;8.10;71.27;101178.84;5063104;28;20032;-72
2021/10/26 01:30:08;;;;;;;25.98;12.20;;;;;;;8.06;71.92;101187.94;5044975;28;20029;-72
2021/10/26 01:32:33;;;;;;;27.17;12.00;;;;;;;8.13;71.96;101186.53;5044860;28;20032;-72
2021/10/26 01:34:59;;;;;;;24.23;13.43;;;;;;;8.12;71.96;101168.19;5062958;28;20059;-72
2021/10/26 01:37:24;;;;;;;22.15;14.45;;;;;;;8.12;72.18;101174.28;5062956;28;20398;-72
2021/10/26 01:39:50;;;;;;;28.55;15.75;;;;;;;8.13;72.04;101167.22;5062965;28;20037;-72
2021/10/26 01:42:16;;;;;;;28.83;16.70;;;;;;;8.10;72.47;101167.44;5062811;28;20055;-72
2021/10/26 01:44:41;;;;;;;30.73;17.35;;;;;;;8.21;71.80;101170.16;5062608;28;20059;-71
2021/10/26 01:47:07;;;;;;;37.63;21.00;;;;;;;8.24;71.55;101160.22;5062715;28;20029;-71
2021/10/26 01:49:32;;;;;;;37.65;22.80;;;;;;;8.23;71.74;101166.44;5062587;28;20037;-72
2021/10/26 01:51:59;;;;;;;44.17;24.63;;;;;;;8.32;71.71;101167.56;5062417;28;20048;-72
2021/10/26 01:54:24;;;;;;;45.75;25.10;;;;;;;8.32;71.69;101164.91;5062507;28;20033;-72
2021/10/26 01:56:50;;;;;;;46.13;26.25;;;;;;;8.13;72.69;101162.78;5062555;28;20078;-72
2021/10/26 01:59:15;;;;;;;48.10;26.92;;;;;;;8.10;73.06;101159.53;5044475;28;20114;-72
2021/10/26 02:01:41;;;;;;;48.95;28.20;;;;;;;8.14;72.78;101153.06;5062404;28;20039;-72
2021/10/26 02:04:07;;;;;;;50.95;28.55;;;;;;;8.05;72.31;101145.84;5062286;28;20261;-72
2021/10/26 02:06:32;;;;;;;52.80;29.48;;;;;;;7.96;72.61;101161.38;5062384;28;20051;-72
2021/10/26 02:08:59;;;;;;;48.42;29.38;;;;;;;8.00;72.40;101165.47;5062316;28;20040;-71
2021/10/26 02:11:25;;;;;;;47.55;27.67;;;;;;;7.96;72.16;101160.53;5062249;28;20039;-72
2021/10/26 02:13:51;;;;;;;41.33;24.25;;;;;;;7.81;72.88;101157.19;5062423;28;20033;-72
2021/10/26 02:16:17;;;;;;;43.40;23.63;;;;;;;7.96;72.20;101150.81;5062483;28;20056;-72
2021/10/26 02:18:42;;;;;;;43.00;21.90;;;;;;;7.88;71.93;101149.69;5062342;28;20062;-72
2021/10/26 02:21:08;;;;;;;46.67;21.30;;;;;;;7.84;72.55;101154.34;5062010;28;20036;-72
2021/10/26 02:23:33;;;;;;;42.33;20.35;;;;;;;7.71;72.40;101156.19;5062217;28;20029;-72
2021/10/26 02:25:59;;;;;;;42.38;18.55;;;;;;;7.73;72.67;101150.78;5062377;28;20250;-71
2021/10/26 02:28:24;;;;;;;34.08;18.27;;;;;;;7.58;72.80;101142.19;5062223;28;20025;-71
2021/10/26 02:30:49;;;;;;;33.03;17.88;;;;;;;7.50;73.22;101141.88;5062012;28;20389;-71
2021/10/26 02:33:15;;;;;;;40.80;18.05;;;;;;;7.59;72.82;101141.22;5062114;28;20029;-71
2021/10/26 02:35:41;;;;;;;41.50;19.92;;;;;;;7.29;73.54;101142.44;5044344;28;20025;-71
2021/10/26 02:38:06;;;;;;;36.75;19.38;;;;;;;7.16;74.50;101143.38;5062166;28;20044;-72
2021/10/26 02:40:33;;;;;;;39.80;19.23;;;;;;;7.19;74.30;101148.41;5062195;28;20037;-72
2021/10/26 02:42:58;;;;;;;37.40;19.98;;;;;;;7.23;73.65;101145.47;5062672;28;20044;-72
2021/10/26 02:45:30;;;;;;;38.63;20.92;;;;;;;7.30;73.57;101145.91;5066187;28;20043;-72
2021/10/26 02:47:56;;;;;;;42.38;21.73;;;;;;;7.26;74.62;101139.13;5066221;28;20075;-72
2021/10/26 02:50:22;;;;;;;45.70;21.58;;;;;;;7.31;73.91;101135.28;5065586;28;20037;-72
2021/10/26 02:52:47;;;;;;;39.72;21.33;;;;;;;7.36;73.49;101135.78;5066140;28;20032;-71
2021/10/26 02:55:13;;;;;;;41.10;21.25;;;;;;;7.07;74.29;101136.09;5066037;28;20024;-71
2021/10/26 02:57:38;;;;;;;38.17;20.02;;;;;;;7.11;73.38;101143.69;5065988;28;20120;-72
2021/10/26 03:00:10;;;;;;;36.67;19.30;;;;;;;7.16;73.98;101136.31;5065545;28;20037;-71
2021/10/26 03:02:36;;;;;;;34.15;18.27;;;;;;;7.31;73.22;101131.78;5065873;28;20055;-71
2021/10/26 03:05:01;;;;;;;31.92;17.85;;;;;;;7.32;72.19;101139.59;5065486;28;20343;-72
2021/10/26 03:07:26;;;;;;;35.20;17.52;;;;;;;7.47;71.46;101136.81;5065862;28;20063;-72
2021/10/26 03:09:52;;;;;;;33.78;17.23;;;;;;;7.40;71.47;101128.50;5065794;28;20060;-72
2021/10/26 03:12:17;;;;;;;36.45;17.92;;;;;;;7.21;72.50;101136.81;5066150;28;20052;-72
2021/10/26 03:14:43;;;;;;;35.15;17.17;;;;;;;7.03;73.48;101140.72;5047736;28;20135;-71
2021/10/26 03:17:08;;;;;;;32.25;17.05;;;;;;;7.10;73.35;101139.38;5065631;28;20029;-71
2021/10/26 03:19:34;;;;;;;31.23;17.13;;;;;;;7.33;72.22;101125.47;5065541;28;20041;-71
2021/10/26 03:21:59;;;;;;;31.00;16.90;;;;;;;7.55;71.71;101142.41;5065360;28;20070;-72
2021/10/26 03:24:25;;;;;;;28.00;16.10;;;;;;;7.66;71.14;101138.06;5065687;28;20056;-72
2021/10/26 03:26:50;;;;;;;31.02;15.50;;;;;;;7.71;70.81;101131.59;5065417;28;20110;-72
2021/10/26 03:29:16;;;;;;;32.65;16.08;;;;;;;7.60;70.74;101133.22;5065019;28;20044;-72
2021/10/26 03:31:42;;;;;;;27.27;15.30;;;;;;;7.58;71.43;101129.00;5065226;28;20029;-72
2021/10/26 03:34:08;;;;;;;27.83;15.68;;;;;;;7.54;71.59;101133.66;5065080;28;20025;-72
2021/10/26 03:36:33;;;;;;;33.55;16.20;;;;;;;7.32;72.05;101118.50;5065231;28;20032;-71
2021/10/26 03:38:59;;;;;;;31.65;16.20;;;;;;;7.38;72.79;101127.78;5047248;28;20385;-71
2021/10/26 03:41:25;;;;;;;28.23;16.17;;;;;;;7.39;72.55;101134.72;5065110;28;20029;-71
2021/10/26 03:43:51;;;;;;;28.13;15.68;;;;;;;7.46;72.11;101122.81;5065131;28;20257;-72
2021/10/26 03:46:17;;;;;;;29.48;15.38;;;;;;;7.54;71.48;101124.91;5065205;28;20025;-72
2021/10/26 03:48:43;;;;;;;30.95;15.30;;;;;;;7.34;72.05;101124.50;5064979;28;20330;-72
2021/10/26 03:51:09;;;;;;;30.13;16.05;;;;;;;7.31;72.39;101123.88;5064629;28;20040;-72
2021/10/26 03:53:34;;;;;;;29.88;14.48;;;;;;;7.23;72.71;101126.19;5064986;28;20218;-72
2021/10/26 03:56:00;;;;;;;32.08;15.57;;;;;;;7.34;71.80;101119.25;5064711;28;20036;-72
2021/10/26 03:58:25;;;;;;;31.35;15.15;;;;;;;7.48;71.06;101120.91;5064709;28;20028;-72
2021/10/26 04:00:51;;;;;;;27.52;14.52;;;;;;;7.34;72.14;101121.03;5064447;28;20109;-70
2021/10/26 04:03:16;;;;;;;26.58;14.25;;;;;;;7.37;71.76;101120.81;5064763;28;20025;-71
2021/10/26 04:06:04;;;;;;;31.23;14.00;;;;;;;7.31;72.62;101123.88;5046711;28;20037;-72
2021/10/26 04:11:27;;;;;;;28.25;14.95;;;;;;;7.25;72.95;101119.84;5030958;28;20303;-72
2021/10/26 04:13:53;;;;;;;25.88;15.25;;;;;;;7.45;72.54;101122.91;5064436;28;20025;-72
2021/10/26 04:16:20;;;;;;;32.80;14.95;;;;;;;7.26;72.32;101110.16;5046531;28;20211;-71
2021/10/26 04:18:46;;;;;;;28.55;16.30;;;;;;;7.42;72.87;101118.72;5064513;28;20319;-71
2021/10/26 04:21:12;;;;;;;29.15;16.15;;;;;;;7.38;72.30;101113.75;5064437;28;20021;-72
2021/10/26 04:23:38;;;;;;;32.90;15.73;;;;;;;7.47;72.47;101121.84;5046599;28;20020;-72
2021/10/26 04:26:06;;;;;;;27.95;13.95;;;;;;;7.37;72.54;101112.91;5064333;28;20045;-72
2021/10/26 04:28:33;;;;;;;30.95;15.45;;;;;;;7.52;71.44;101106.56;5063979;28;20044;-71
2021/10/26 04:31:01;;;;;;;32.17;15.07;;;;;;;7.25;71.91;101104.06;5063951;28;20048;-71
2021/10/26 04:33:27;;;;;;;32.50;15.60;;;;;;;7.25;72.33;101095.31;5064155;28;20032;-72
2021/10/26 04:35:52;;;;;;;30.85;14.85;;;;;;;7.18;71.69;101096.69;5064279;28;20045;-72
2021/10/26 04:38:18;;;;;;;28.83;14.93;;;;;;;7.23;72.12;101100.69;5064179;28;20029;-72
2021/10/26 04:40:44;;;;;;;30.02;15.90;;;;;;;7.18;71.72;101105.44;5064046;28;20040;-72
2021/10/26 04:43:09;;;;;;;27.27;15.27;;;;;;;7.07;72.25;101097.44;5064048;28;20033;-72
2021/10/26 04:45:35;;;;;;;32.92;15.23;;;;;;;7.24;71.88;101115.53;5063660;28;20220;-72
2021/10/26 04:48:00;;;;;;;28.45;15.68;;;;;;;7.33;71.46;101112.28;5063995;28;20021;-72
2021/10/26 04:50:30;;;;;;;38.90;16.20;;;;;;;7.29;71.21;101112.63;5063793;28;20235;-71
2021/10/26 04:52:56;;;;;;;31.42;15.48;;;;;;;7.42;70.34;101116.06;5064099;28;20230;-71
2021/10/26 04:55:21;;;;;;;35.03;17.17;;;;;;;7.47;70.37;101113.09;5045836;28;20032;-72
2021/10/26 04:57:46;;;;;;;34.00;16.20;;;;;;;7.53;69.94;101110.88;5063781;28;20032;-72
2021/10/26 05:00:12;;;;;;;34.90;16.40;;;;;;;7.50;69.86;101115.53;5063714;28;20041;-72
2021/10/26 05:02:39;;;;;;;32.00;17.75;;;;;;;7.47;69.39;101113.94;5063693;28;20032;-72
2021/10/26 05:05:06;;;;;;;33.60;17.83;;;;;;;7.28;70.25;101109.13;5045278;28;20224;-72
2021/10/26 05:07:32;;;;;;;37.72;18.70;;;;;;;7.39;69.16;101104.91;5062826;28;20029;-72
2021/10/26 05:09:58;;;;;;;43.05;20.67;;;;;;;7.09;69.80;101095.53;5063281;28;20037;-71
2021/10/26 05:12:23;;;;;;;45.97;21.15;;;;;;;7.25;70.34;101117.22;5063195;28;20063;-70
2021/10/26 05:14:49;;;;;;;55.33;23.00;;;;;;;7.44;68.95;101119.44;5061923;28;20066;-70
2021/10/26 05:17:19;;;;;;;47.33;22.75;;;;;;;7.40;69.13;101117.13;5062008;28;20255;-72
2021/10/26 05:19:47;;;;;;;56.78;23.92;;;;;;;7.33;69.09;101119.34;5061461;28;20059;-72
2021/10/26 05:22:13;;;;;;;46.65;20.48;;;;;;;7.35;69.43;101115.66;5061358;28;20037;-72
2021/10/26 05:24:38;;;;;;;46.75;19.73;;;;;;;7.50;68.04;101129.53;5061292;28;20079;-72
2021/10/26 05:27:04;;;;;;;49.58;21.80;;;;;;;7.41;68.57;101129.34;5061399;28;20033;-72
2021/10/26 05:29:31;;;;;;;41.83;20.58;;;;;;;7.40;68.82;101128.50;5060891;28;20104;-72
2021/10/26 05:31:56;;;;;;;35.00;19.20;;;;;;;7.28;69.44;101129.34;5061092;28;20025;-72
2021/10/26 05:34:22;;;;;;;32.17;17.77;;;;;;;7.21;69.74;101126.28;5060947;28;20295;-71
2021/10/26 05:36:48;;;;;;;40.53;18.77;;;;;;;7.15;69.52;101131.16;5061216;28;20048;-71
2021/10/26 05:39:14;;;;;;;45.03;19.45;;;;;;;7.28;69.19;101132.84;5061002;28;20142;-72
2021/10/26 05:41:40;;;;;;;34.08;17.92;;;;;;;7.56;68.26;101130.91;5061218;28;20060;-72
2021/10/26 05:44:06;;;;;;;37.00;17.23;;;;;;;7.51;68.46;101133.03;5060896;28;20318;-72
2021/10/26 05:46:31;;;;;;;38.78;18.50;;;;;;;7.56;68.57;101129.13;5061452;28;20036;-72
2021/10/26 05:48:57;;;;;;;38.78;19.65;;;;;;;7.71;67.90;101136.88;5060996;28;20036;-72
2021/10/26 05:51:22;;;;;;;44.10;20.45;;;;;;;7.66;68.11;101138.06;5060604;28;20311;-72
2021/10/26 05:53:48;;;;;;;35.70;18.73;;;;;;;7.64;68.14;101125.94;5060862;28;20032;-71
2021/10/26 05:56:14;;;;;;;33.75;18.77;;;;;;;7.84;67.17;101145.59;5042955;28;20333;-70
2021/10/26 05:58:39;;;;;;;30.63;17.92;;;;;;;7.92;67.07;101138.81;5060629;28;20025;-72
2021/10/26 06:01:05;;;;;;;41.35;24.35;;;;;;;7.97;66.64;101139.31;5060486;28;20131;-72
2021/10/26 06:03:32;;;;;;;33.35;18.15;;;;;;;8.08;66.90;101140.34;5061009;28;20031;-72
2021/10/26 06:05:57;;;;;;;40.63;17.65;;;;;;;8.39;66.30;101141.63;5060932;28;20057;-71
2021/10/26 06:08:23;;;;;;;35.38;17.42;;;;;;;8.59;65.42;101139.19;5061728;28;20032;-72
2021/10/26 06:10:55;;;;;;;35.83;15.77;;;;;;;8.65;65.53;101140.50;5061619;28;20084;-71
2021/10/26 06:13:25;;;;;;;30.35;15.23;;;;;;;8.75;65.82;101151.22;5061449;28;20052;-72
2021/10/26 06:15:51;;;;;;;24.58;13.20;;;;;;;8.68;65.57;101153.47;5061326;28;20330;-71
2021/10/26 06:18:18;;;;;;;28.65;15.07;;;;;;;8.93;64.95;101140.09;5061316;28;20040;-72
2021/10/26 06:20:43;;;;;;;32.28;14.77;;;;;;;8.94;64.81;101154.16;5061175;28;20088;-72
2021/10/26 06:23:09;;;;;;;27.60;16.02;;;;;;;9.02;65.39;101172.06;5061354;28;20031;-72
2021/10/26 06:25:34;;;;;;;30.08;18.00;;;;;;;9.37;64.66;101156.97;5061416;28;20033;-72
2021/10/26 06:28:00;;;;;;;29.15;16.65;;;;;;;9.52;64.22;101163.72;5061175;28;20338;-71
2021/10/26 06:30:26;;;;;;;29.38;16.17;;;;;;;9.86;62.58;101167.16;5042944;28;20056;-71
2021/10/26 06:32:51;;;;;;;32.83;15.70;;;;;;;10.17;61.08;101160.22;5060977;28;20025;-70
2021/10/26 06:35:17;;;;;;;36.42;16.70;;;;;;;10.47;60.63;101153.44;5061004;28;20029;-70
2021/10/26 06:37:43;;;;;;;35.58;16.73;;;;;;;10.67;59.74;101144.69;5061153;28;20040;-71
2021/10/26 06:40:11;;;;;;;31.90;15.73;;;;;;;10.80;59.35;101152.44;5060770;28;20037;-72
2021/10/26 06:42:37;;;;;;;38.67;16.83;;;;;;;10.95;59.08;101137.88;5043327;28;20031;-72
2021/10/26 06:45:03;;;;;;;32.42;15.80;;;;;;;10.86;58.98;101149.28;5061102;28;20087;-72
2021/10/26 06:47:29;;;;;;;31.38;15.27;;;;;;;10.80;58.50;101149.78;5060988;28;20066;-71
2021/10/26 06:49:55;;;;;;;32.70;16.70;;;;;;;10.98;58.18;101134.13;5060762;28;20207;-71
2021/10/26 06:52:20;;;;;;;34.78;16.75;;;;;;;11.08;58.08;101137.69;5060763;28;20041;-72
2021/10/26 06:54:46;;;;;;;34.67;16.63;;;;;;;11.41;57.52;101147.19;5060930;28;20037;-72
2021/10/26 06:57:11;;;;;;;27.73;15.90;;;;;;;11.78;56.20;101145.72;5061004;28;20285;-72
2021/10/26 06:59:37;;;;;;;32.17;17.85;;;;;;;11.97;55.47;101146.72;5060473;28;20037;-72
2021/10/26 07:02:03;;;;;;;27.88;16.27;;;;;;;12.18;55.04;101144.81;5060690;28;20345;-71
2021/10/26 07:04:34;;;;;;;28.80;16.40;;;;;;;12.06;55.23;101144.09;5060481;28;21071;-72
2021/10/26 07:07:00;;;;;;;24.77;14.70;;;;;;;12.28;53.66;101148.31;5043037;28;20233;-72
2021/10/26 07:09:25;;;;;;;31.52;15.05;;;;;;;12.26;54.55;101139.63;5060895;28;20049;-72
2021/10/26 07:11:51;;;;;;;23.95;12.85;;;;;;;12.35;54.32;101141.47;5060850;28;20033;-72
2021/10/26 07:14:16;;;;;;;29.35;16.48;;;;;;;12.57;53.54;101147.50;5060552;28;20218;-72
2021/10/26 07:16:42;;;;;;;24.80;14.23;;;;;;;12.40;53.98;101141.03;5060747;28;20032;-72
2021/10/26 07:19:07;;;;;;;27.27;14.98;;;;;;;11.85;54.30;101142.50;5060578;28;20084;-72
2021/10/26 07:21:33;;;;;;;27.70;12.55;;;;;;;12.10;54.64;101144.66;5060492;28;20047;-72
2021/10/26 07:23:59;;;;;;;21.98;12.13;;;;;;;11.94;54.29;101131.91;5060472;28;20268;-73
2021/10/26 07:26:25;;;;;;;19.58;10.98;;;;;;;12.05;54.50;101131.78;5060626;28;20314;-72
2021/10/26 07:28:50;;;;;;;22.95;11.93;;;;;;;12.23;54.61;101133.75;5060465;28;20033;-71
2021/10/26 07:31:18;;;;;;;20.92;12.02;;;;;;;12.34;54.17;101130.97;5064047;28;20043;-72
2021/10/26 07:33:43;;;;;;;26.38;12.95;;;;;;;12.69;54.15;101130.41;5064361;28;20035;-72
2021/10/26 07:36:11;;;;;;;21.20;11.77;;;;;;;12.86;53.59;101129.69;5064042;28;20041;-73
2021/10/26 07:38:40;;;;;;;22.27;11.98;;;;;;;12.93;52.73;101125.47;5064335;28;20032;-72
2021/10/26 07:41:06;;;;;;;23.25;14.25;;;;;;;13.13;52.60;101128.91;5064168;28;20048;-73
2021/10/26 07:43:34;;;;;;;24.83;16.30;;;;;;;12.96;52.55;101127.00;5064202;28;20029;-72
2021/10/26 07:46:00;;;;;;;22.85;11.32;;;;;;;12.22;54.61;101117.00;5063818;28;20045;-72
2021/10/26 07:48:27;;;;;;;21.70;11.85;;;;;;;12.69;53.60;101117.97;5064471;28;20234;-73
2021/10/26 07:50:57;;;;;;;21.95;13.48;;;;;;;12.97;52.02;101108.25;5063800;28;20040;-72
2021/10/26 07:53:24;;;;;;;23.35;11.95;;;;;;;13.19;51.60;101116.91;5064175;28;20098;-73
2021/10/26 07:55:51;;;;;;;25.65;12.10;;;;;;;13.16;52.47;101112.69;5063811;28;20032;-72
2021/10/26 07:58:17;;;;;;;19.83;10.95;;;;;;;13.35;51.64;101112.63;5045970;28;20112;-72
2021/10/26 08:00:42;;;;;;;18.13;10.48;;;;;;;13.51;50.37;101114.66;5063912;28;20045;-73
2021/10/26 08:03:08;;;;;;;20.80;10.40;;;;;;;13.84;48.93;101115.91;5063712;28;20040;-73
2021/10/26 08:05:33;;;;;;;20.75;11.32;;;;;;;14.15;49.12;101108.41;5063559;28;20029;-72
2021/10/26 08:07:58;;;;;;;21.27;11.95;;;;;;;13.75;48.53;101111.47;5063823;28;20352;-71
2021/10/26 08:10:25;;;;;;;18.42;10.65;;;;;;;13.44;49.46;101113.56;5063737;28;20041;-73
2021/10/26 08:12:50;;;;;;;16.70;10.32;;;;;;;13.71;49.36;101118.09;5063687;28;20253;-73
2021/10/26 08:15:16;;;;;;;20.13;10.52;;;;;;;14.08;48.48;101112.66;5063256;28;20112;-73
2021/10/26 08:17:41;;;;;;;20.67;11.52;;;;;;;13.89;50.02;101102.97;5063641;28;20025;-73
2021/10/26 08:20:08;;;;;;;18.45;11.95;;;;;;;13.88;49.63;101103.13;5063204;28;20033;-73
2021/10/26 08:22:38;;;;;;;19.95;10.35;;;;;;;14.09;49.05;101098.34;5063663;28;20312;-72
2021/10/26 08:25:09;;;;;;;18.48;9.88;;;;;;;14.23;48.20;101099.63;5063555;28;20092;-72
2021/10/26 08:27:35;;;;;;;19.50;10.65;;;;;;;13.86;49.01;101100.63;5063316;28;20041;-72
2021/10/26 08:30:14;;;;;;;16.27;10.10;;;;;;;13.59;49.65;101095.31;5062897;28;20334;-72
2021/10/26 08:35:32;;;;;;;20.00;9.50;;;;;;;13.50;49.92;101097.00;5039325;28;20048;-72
2021/10/26 08:38:03;;;;;;;14.23;9.15;;;;;;;13.53;49.71;101095.91;5063143;28;20298;-72
2021/10/26 08:40:32;;;;;;;18.33;9.98;;;;;;;12.75;52.88;101082.84;5062941;28;20099;-72
2021/10/26 08:43:03;;;;;;;15.20;9.85;;;;;;;12.89;53.47;101080.72;5062555;28;20037;-72
2021/10/26 08:45:31;;;;;;;21.48;10.00;;;;;;;13.39;51.08;101086.56;5062813;28;20043;-71
2021/10/26 08:47:59;;;;;;;15.75;9.82;;;;;;;13.60;50.13;101097.00;5062986;28;20021;-71
2021/10/26 08:50:26;;;;;;;19.40;9.38;;;;;;;13.52;51.15;101081.75;5062784;28;20295;-73
2021/10/26 08:52:51;;;;;;;18.85;9.52;;;;;;;13.53;50.94;101075.47;5062767;28;20045;-72
2021/10/26 08:55:18;;;;;;;13.75;8.77;;;;;;;13.45;51.72;101082.47;5062797;28;20269;-72
2021/10/26 08:57:44;;;;;;;20.88;10.35;;;;;;;12.78;53.51;101087.88;5062681;28;20052;-72
2021/10/26 09:00:10;;;;;;;16.83;9.65;;;;;;;12.58;53.94;101080.94;5062338;28;20036;-72
2021/10/26 09:02:38;;;;;;;21.13;10.15;;;;;;;12.57;53.00;101079.25;5062568;28;20041;-72
2021/10/26 09:05:09;;;;;;;22.80;8.95;;;;;;;12.75;52.77;101066.91;5062279;28;20045;-73
2021/10/26 09:07:35;;;;;;;13.52;7.47;;;;;;;12.95;52.29;101074.81;5062611;28;20029;-73
2021/10/26 09:10:14;;;;;;;13.57;7.80;;;;;;;12.86;52.77;101073.03;5062402;28;20096;-72
2021/10/26 09:17:57;;;;;;;13.43;7.95;;;;;;;12.78;53.84;101049.81;5062358;28;20091;-72
2021/10/26 09:20:29;;;;;;;9.20;5.53;;;;;;;12.91;49.78;101060.13;5062169;28;20053;-72
2021/10/26 09:22:56;;;;;;;12.88;7.18;;;;;;;12.33;52.02;101037.16;5062238;28;20092;-72
2021/10/26 09:25:54;;;;;;;12.63;6.65;;;;;;;12.41;53.00;101037.28;5062065;28;20044;-71
2021/10/26 09:28:19;;;;;;;18.33;6.55;;;;;;;12.36;52.37;101036.88;5046484;28;20045;-71
2021/10/26 09:31:02;;;;;;;11.73;6.35;;;;;;;12.51;52.55;101032.00;5061846;28;20048;-72
2021/10/26 09:33:41;;;;;;;14.02;6.45;;;;;;;12.44;53.03;101028.22;5062270;28;20028;-72
2021/10/26 09:36:30;;;;;;;7.88;5.40;;;;;;;12.22;52.77;101021.38;5061867;28;20064;-72
2021/10/26 09:39:11;;;;;;;9.43;5.55;;;;;;;12.04;55.09;101021.25;5061867;28;20318;-71
2021/10/26 09:41:51;;;;;;;13.20;6.53;;;;;;;12.06;54.87;101018.47;5061972;28;20029;-72
2021/10/26 09:44:22;;;;;;;13.85;5.50;;;;;;;11.89;53.02;101014.69;5061928;28;20331;-72
2021/10/26 09:46:57;;;;;;;11.50;6.30;;;;;;;11.89;54.35;101001.44;5061894;28;20024;-72
2021/10/26 09:49:36;;;;;;;14.68;6.20;;;;;;;12.14;54.00;101000.03;5043753;28;20040;-72
2021/10/26 09:52:15;;;;;;;9.48;6.38;;;;;;;12.30;53.32;100994.97;5061377;28;20055;-72
2021/10/26 09:55:06;;;;;;;10.35;5.90;;;;;;;12.35;53.59;100991.88;5061818;28;20246;-72
2021/10/26 09:57:37;;;;;;;11.82;6.40;;;;;;;12.48;52.27;100987.09;5052514;28;20056;-72
2021/10/26 10:00:06;;;;;;;11.90;5.85;;;;;;;12.65;51.76;100988.19;5061148;28;20048;-72
2021/10/26 10:02:31;;;;;;;11.02;6.40;;;;;;;12.66;52.04;100984.56;5061517;28;20315;-72
2021/10/26 10:04:58;;;;;;;9.75;6.53;;;;;;;12.59;52.69;100975.47;5061206;28;20048;-72
2021/10/26 10:07:37;;;;;;;12.15;6.38;;;;;;;12.62;52.83;100978.69;5042583;28;20025;-71
2021/10/26 10:10:07;;;;;;;10.52;6.32;;;;;;;12.42;53.12;100972.56;5061478;28;20317;-72
2021/10/26 10:12:38;;;;;;;10.38;5.72;;;;;;;12.42;54.35;100963.75;5061645;28;20365;-72
2021/10/26 10:15:06;;;;;;;11.65;6.13;;;;;;;12.46;53.04;100959.84;5061153;28;20040;-72
2021/10/26 10:17:35;;;;;;;11.85;6.70;;;;;;;12.55;54.38;100955.50;5061501;28;20025;-72
2021/10/26 10:20:03;;;;;;;9.82;5.85;;;;;;;12.77;52.95;100948.00;5061276;28;20380;-72
2021/10/26 10:22:30;;;;;;;13.23;6.18;;;;;;;12.73;51.86;100932.50;5061304;28;20040;-72
2021/10/26 10:25:01;;;;;;;10.13;6.70;;;;;;;12.83;53.02;100925.31;5061155;28;20040;-72
2021/10/26 10:27:30;;;;;;;19.90;11.00;;;;;;;13.10;53.14;100919.13;5061283;28;20152;-72
2021/10/26 10:29:56;;;;;;;11.55;6.03;;;;;;;13.10;51.79;100919.97;5043002;28;20250;-72
2021/10/26 10:32:24;;;;;;;11.48;6.13;;;;;;;13.11;51.64;100923.47;5061078;28;20337;-72
2021/10/26 10:34:51;;;;;;;15.23;5.90;;;;;;;12.79;52.58;100914.13;5043138;28;20338;-72
2021/10/26 10:37:21;;;;;;;10.55;5.95;;;;;;;13.01;51.44;100909.41;5061093;28;20029;-72
2021/10/26 10:39:47;;;;;;;12.65;5.28;;;;;;;13.00;52.67;100910.38;5061073;28;20037;-72
2021/10/26 10:42:21;;;;;;;11.80;5.43;;;;;;;13.06;50.71;100899.16;5061062;28;20040;-72
2021/10/26 10:44:47;;;;;;;7.78;5.63;;;;;;;13.17;51.35;100898.13;5061200;28;20037;-72
2021/10/26 10:47:31;;;;;;;11.95;6.05;;;;;;;13.60;49.61;100895.56;5060945;28;20090;-71
2021/10/26 10:49:57;;;;;;;11.10;6.25;;;;;;;13.39;50.51;100887.88;5043277;28;20285;-72
2021/10/26 10:52:43;;;;;;;8.05;5.57;;;;;;;13.41;51.19;100885.91;5060850;28;20068;-72
2021/10/26 10:55:23;;;;;;;9.68;6.43;;;;;;;13.48;50.78;100886.13;5060195;28;20848;-72
2021/10/26 10:57:49;;;;;;;11.73;6.18;;;;;;;13.50;50.42;100872.66;5060852;28;20028;-72
2021/10/26 11:00:24;;;;;;;10.73;5.82;;;;;;;13.56;51.01;100880.06;5060376;28;20664;-72
2021/10/26 11:02:58;;;;;;;10.43;5.55;;;;;;;13.70;49.19;100869.69;5060603;28;20028;-72
2021/10/26 11:05:36;;;;;;;11.15;6.03;;;;;;;14.01;49.84;100864.75;5062878;28;20294;-72
2021/10/26 11:08:13;;;;;;;9.27;5.72;;;;;;;13.96;50.02;100859.06;5064853;28;20039;-72
2021/10/26 11:10:50;;;;;;;12.05;5.72;;;;;;;13.60;49.87;100857.47;5064881;28;20037;-72
2021/10/26 11:13:22;;;;;;;10.85;5.43;;;;;;;13.61;49.95;100848.50;5064761;28;20029;-72
2021/10/26 11:15:49;;;;;;;10.95;6.03;;;;;;;13.45;50.65;100849.19;5064695;28;20314;-72
2021/10/26 11:18:33;;;;;;;11.25;5.75;;;;;;;13.49;50.51;100842.56;5064608;28;20060;-72
2021/10/26 11:21:00;;;;;;;8.27;4.97;;;;;;;13.59;50.19;100831.84;5064025;28;20033;-72
2021/10/26 11:23:33;;;;;;;9.60;5.20;;;;;;;13.93;49.57;100829.25;5064373;28;20028;-72
2021/10/26 11:26:05;;;;;;;8.75;4.30;;;;;;;13.90;48.77;100822.41;5064677;28;20100;-71
2021/10/26 11:28:31;;;;;;;9.63;4.63;;;;;;;13.95;50.06;100822.78;5064166;28;20210;-72
2021/10/26 11:31:00;;;;;;;9.65;5.25;;;;;;;13.94;51.51;100826.44;5063845;28;20095;-72